Terminal Aerodrome Forecast
Issued by NWS Rapid City, SD

Home | Current Version | Previous Version | Graphics & Text | Print | Product List | Glossary On
Versions: 1 2 3 4 5 6 7 8 9 10 11 12 13 14 15 16 17 18 19 20 21 22 23 24
373
FTUS43 KUNR 071633 AAB
TAFRAP
TAF AMD
KRAP 071633Z 0717/0812 34020G30KT P6SM SCT025 SCT120
      TEMPO 0717/0720 BKN020
     FM080000 33010KT P6SM SCT100=

USA.gov is the U.S. government's official web portal to all federal, state and local government web resources and services.